Hlavní strana
METAR-TAF:

METAR-TAF

Letiště :

Niamey, Niger

zeměpisná šířka: 13-29N, zeměpisná délka: 002-10E, výška: 223 m

Aktuální stav počasí

Zpráva byla vytvořena před 46 minutami, v 15:00 UTC
Severoseverovýchodní vítr 10 kt
Teplota 41°C
Vlhkost vzduchu 5%
Tlak 1004 hPa
Viditelnost: 5000 m
rozsáhlý prach

METAR: DRRN 201500Z 02010KT 5000 DU NSC 41/M06 Q1004 BECMG 3500 DU

Čas: 16:46 (15:46 UTC)

Předpověď počasí

Zpráva byla vytvořena před 4 hodinami a 46 minutami, v 11:00 UTC
Předpověď platná od 20 v 12 UTC do 21 v 18 UTC
Severoseverovýchodní vítr 10 kt
Viditelnost: 6000 m
Dočasný
od 20 v 18 UTC do 20 v 20 UTC
Viditelnost: 3500 m
rozsáhlý prach
Dočasný
od 21 v 05 UTC do 21 v 08 UTC
Viditelnost: 3500 m
rozsáhlý prach

TAF: DRRN 201100Z 2012/2118 03010KT 6000 NSC TEMPO 2018/2020 3500 DU TEMPO 2105/2108 3500 DU

Stav a předpovědi počasí z více než 4 000 letišť (zprávy METAR a TAF).

Červené a žluté tečky na mapě představují dostupné meteorologické stanice.

Když kurzor umístíte na tečku, zobrazí se název stanice.

Pak kliknutím zobrazíte stav a předpověď počasí.

Chcete-li změnit mapu, kliknutím na zelené tlačítko se znaménkem +mapu přiblížíte, kliknutím na zelené tlačítko se znaménkem – mapu oddálíte a kliknutím na zelené šipky přejdete na sousední mapy.


METAR-TAF: